Time;durP1;ratioP1;P1;durP2;ratioP2;P2;SDS_P1;SDS_P2;PMS_P1;PMS_P2;Temp;Humidity;BMP_temperature;BMP_pressure;BME280_temperature;BME280_humidity;BME280_pressure;Samples;Min_cycle;Max_cycle;Signal;HPM_P1;HPM_P2
2024/01/31 00:00:07;;;;;;;10.63;4.25;;;;;;;-1.71;88.50;96357.66;4991435;28;20242;-72
2024/01/31 00:02:35;;;;;;;10.73;4.75;;;;;;;-1.67;87.61;96360.75;4992840;28;20288;-74
2024/01/31 00:05:02;;;;;;;7.20;3.92;;;;;;;-1.65;88.87;96362.16;4988099;28;20213;-73
2024/01/31 00:07:29;;;;;;;0.20;0.20;;;;;;;-1.64;87.97;96366.44;4990559;28;20233;-75
2024/01/31 00:09:56;;;;;;;1.10;1.00;;;;;;;-1.65;87.23;96367.47;4991276;28;20229;-74
2024/01/31 00:12:22;;;;;;;0.20;0.20;;;;;;;-1.74;87.54;96357.25;4990447;28;20206;-73
2024/01/31 00:14:52;;;;;;;4.65;3.55;;;;;;;-1.67;87.23;96358.06;4991960;28;20664;-74
2024/01/31 00:17:19;;;;;;;0.50;0.50;;;;;;;-1.62;87.39;96355.59;4991518;28;20208;-74
2024/01/31 00:19:47;;;;;;;0.30;0.30;;;;;;;-1.96;88.31;96367.31;4993555;28;20224;-75
2024/01/31 00:22:14;;;;;;;0.52;0.52;;;;;;;-2.37;88.73;96370.19;4990882;28;20248;-72
2024/01/31 00:24:41;;;;;;;8.70;3.97;;;;;;;-2.57;89.44;96367.53;4991707;28;20237;-74
2024/01/31 00:27:08;;;;;;;4.15;2.58;;;;;;;-2.74;90.52;96361.00;4993540;28;20201;-73
2024/01/31 00:29:38;;;;;;;7.50;4.25;;;;;;;-2.72;91.33;96362.41;4991859;28;20753;-73
2024/01/31 00:32:08;;;;;;;9.13;3.45;;;;;;;-2.59;90.76;96364.25;4991049;28;20569;-73
2024/01/31 00:34:37;;;;;;;8.23;2.70;;;;;;;-2.58;90.89;96357.94;4991843;28;20193;-75
2024/01/31 00:37:05;;;;;;;8.15;3.78;;;;;;;-2.34;90.34;96357.34;4988586;28;20213;-74
2024/01/31 00:39:32;;;;;;;1.88;0.93;;;;;;;-2.23;89.68;96354.06;4991192;28;20206;-74
2024/01/31 00:42:00;;;;;;;0.20;0.20;;;;;;;-2.00;88.91;96347.50;4991074;28;20210;-73
2024/01/31 00:44:27;;;;;;;0.73;0.68;;;;;;;-1.85;88.85;96345.44;4990985;28;20210;-73
2024/01/31 00:46:54;;;;;;;4.40;2.42;;;;;;;-1.94;87.38;96346.69;4991059;28;20244;-73
2024/01/31 00:49:21;;;;;;;0.30;0.30;;;;;;;-1.93;87.15;96348.34;4991258;28;20572;-74
2024/01/31 00:51:47;;;;;;;0.52;0.52;;;;;;;-2.00;87.88;96347.50;4990820;28;20213;-73
2024/01/31 00:54:16;;;;;;;0.30;0.30;;;;;;;-2.03;88.57;96342.59;4990624;28;20205;-74
2024/01/31 00:56:42;;;;;;;0.22;0.22;;;;;;;-2.21;88.23;96335.28;4990851;28;20205;-77
2024/01/31 00:59:09;;;;;;;0.13;0.13;;;;;;;-2.30;88.08;96334.66;4991087;28;20201;-73
2024/01/31 01:01:36;;;;;;;0.20;0.20;;;;;;;-2.27;88.21;96344.88;4990475;28;20237;-74
2024/01/31 01:04:03;;;;;;;0.73;0.73;;;;;;;-2.16;88.42;96344.25;4991093;28;20272;-73
2024/01/31 01:06:30;;;;;;;0.20;0.20;;;;;;;-2.21;87.70;96341.41;4990569;28;20245;-74
2024/01/31 01:08:59;;;;;;;0.70;0.70;;;;;;;-2.15;87.86;96335.28;4990670;28;20617;-74
2024/01/31 01:11:30;;;;;;;0.47;0.47;;;;;;;-2.21;86.17;96345.91;4988423;28;20662;-74
2024/01/31 01:13:56;;;;;;;4.32;2.45;;;;;;;-2.37;88.38;96341.84;4990442;28;20396;-74
2024/01/31 01:16:23;;;;;;;7.72;3.75;;;;;;;-2.51;88.01;96342.84;4990746;28;20197;-75
2024/01/31 01:18:50;;;;;;;8.90;3.95;;;;;;;-2.58;87.86;96339.34;4994886;28;20206;-75
2024/01/31 01:21:17;;;;;;;5.57;3.42;;;;;;;-2.60;88.66;96330.81;4994742;28;20552;-75
2024/01/31 01:23:44;;;;;;;17.20;3.40;;;;;;;-2.53;88.65;96337.75;4994685;28;20213;-75
2024/01/31 01:26:11;;;;;;;8.27;3.63;;;;;;;-2.63;89.01;96337.34;4994828;28;20209;-75
2024/01/31 01:28:39;;;;;;;12.43;5.32;;;;;;;-2.82;91.69;96339.94;4994392;28;20212;-74
2024/01/31 01:31:06;;;;;;;3.90;2.55;;;;;;;-2.88;91.00;96339.75;4994632;28;20663;-75
2024/01/31 01:33:32;;;;;;;6.20;2.05;;;;;;;-2.91;91.04;96329.53;4994543;28;20284;-75
2024/01/31 01:35:59;;;;;;;4.18;3.22;;;;;;;-2.44;90.41;96324.25;4996489;28;20205;-74
2024/01/31 01:38:26;;;;;;;4.38;2.55;;;;;;;-2.57;88.16;96335.69;4994522;28;20677;-75
2024/01/31 01:40:53;;;;;;;4.72;2.65;;;;;;;-2.54;87.02;96329.97;4994141;28;20201;-74
2024/01/31 01:43:20;;;;;;;5.28;2.75;;;;;;;-2.55;87.91;96323.88;4994158;28;20206;-74
2024/01/31 01:45:49;;;;;;;6.97;3.40;;;;;;;-2.47;87.79;96328.16;4993417;28;20210;-74
2024/01/31 01:48:16;;;;;;;3.42;2.08;;;;;;;-2.49;87.93;96319.59;4994048;28;20205;-74
2024/01/31 01:50:44;;;;;;;4.15;1.88;;;;;;;-2.44;87.90;96325.09;4993594;28;20325;-73
2024/01/31 01:53:11;;;;;;;11.90;3.08;;;;;;;-2.52;87.42;96330.59;4994086;28;20201;-73
2024/01/31 01:55:39;;;;;;;3.88;2.60;;;;;;;-2.51;88.62;96334.88;4993706;28;20605;-74
2024/01/31 01:58:06;;;;;;;2.63;1.85;;;;;;;-2.39;88.88;96317.34;4993742;28;20311;-73
2024/01/31 02:00:34;;;;;;;6.80;3.05;;;;;;;-2.29;88.64;96312.41;4993649;28;20205;-74
2024/01/31 02:03:04;;;;;;;10.48;3.63;;;;;;;-2.31;87.94;96306.50;4993715;28;20202;-74
2024/01/31 02:05:32;;;;;;;5.68;3.47;;;;;;;-2.70;88.26;96319.75;4991546;28;20214;-74
2024/01/31 02:08:00;;;;;;;3.25;2.08;;;;;;;-2.81;88.81;96320.38;4993816;28;20295;-73
2024/01/31 02:10:27;;;;;;;5.78;3.28;;;;;;;-2.76;87.97;96317.94;4993623;28;20225;-74
2024/01/31 02:12:54;;;;;;;4.78;2.45;;;;;;;-2.71;88.46;96318.13;4994646;28;20722;-74
2024/01/31 02:15:21;;;;;;;3.17;2.17;;;;;;;-2.91;88.87;96313.66;4993754;28;20269;-73
2024/01/31 02:17:47;;;;;;;5.20;2.90;;;;;;;-3.31;89.57;96311.91;4993843;28;20429;-73
2024/01/31 02:20:16;;;;;;;4.68;2.65;;;;;;;-3.56;91.46;96313.47;4993985;28;20256;-73
2024/01/31 02:22:47;;;;;;;5.50;2.38;;;;;;;-3.56;91.62;96310.81;4994142;28;20261;-74
2024/01/31 02:25:14;;;;;;;7.78;2.20;;;;;;;-3.68;91.58;96311.38;4986836;28;20559;-74
2024/01/31 02:27:41;;;;;;;2.75;2.25;;;;;;;-3.90;92.17;96309.84;4993713;28;20198;-75
2024/01/31 02:30:09;;;;;;;5.72;2.75;;;;;;;-3.81;93.41;96306.00;4992906;28;20705;-76
2024/01/31 02:32:37;;;;;;;8.50;2.53;;;;;;;-3.66;93.68;96314.63;4993566;28;20260;-75
2024/01/31 02:35:05;;;;;;;2.83;2.13;;;;;;;-3.42;93.33;96309.84;4993473;28;20206;-75
2024/01/31 02:37:31;;;;;;;3.25;1.77;;;;;;;-3.32;92.81;96299.69;4990978;28;20213;-76
2024/01/31 02:40:00;;;;;;;3.30;1.40;;;;;;;-3.11;92.26;96296.88;4993369;28;20325;-75
2024/01/31 02:42:27;;;;;;;7.18;2.70;;;;;;;-2.93;91.03;96305.06;4993358;28;20214;-75
2024/01/31 02:44:54;;;;;;;7.00;3.40;;;;;;;-2.75;91.47;96301.00;4993469;28;20213;-75
2024/01/31 02:47:21;;;;;;;7.70;2.53;;;;;;;-2.77;90.47;96297.75;4992993;28;20213;-75
2024/01/31 02:49:47;;;;;;;6.78;3.63;;;;;;;-2.79;90.23;96291.81;4993862;28;20694;-76
2024/01/31 02:52:14;;;;;;;5.75;2.78;;;;;;;-2.79;89.82;96305.09;4993199;28;20206;-75
2024/01/31 02:54:41;;;;;;;4.63;2.70;;;;;;;-3.13;90.98;96298.09;4993145;28;20202;-75
2024/01/31 02:57:09;;;;;;;3.40;1.95;;;;;;;-2.90;90.55;96299.38;4992756;28;20217;-74
2024/01/31 02:59:36;;;;;;;3.97;2.58;;;;;;;-3.08;91.26;96296.47;4993100;28;20202;-74
2024/01/31 03:02:05;;;;;;;2.95;2.22;;;;;;;-3.22;90.95;96300.13;4990715;28;20217;-74
2024/01/31 03:04:32;;;;;;;3.92;2.92;;;;;;;-2.89;91.30;96300.19;4993437;28;20284;-74
2024/01/31 03:06:58;;;;;;;8.43;3.13;;;;;;;-2.71;91.05;96297.72;4992998;28;20636;-74
2024/01/31 03:09:26;;;;;;;8.18;3.40;;;;;;;-2.56;90.70;96294.88;4993015;28;20261;-75
2024/01/31 03:11:53;;;;;;;7.20;2.90;;;;;;;-2.65;89.76;96285.50;4990639;28;20212;-74
2024/01/31 03:14:21;;;;;;;3.95;2.30;;;;;;;-2.39;89.16;96292.63;4993350;28;20272;-74
2024/01/31 03:16:48;;;;;;;7.28;2.03;;;;;;;-2.40;88.42;96291.81;4992620;28;20285;-74
2024/01/31 03:19:15;;;;;;;7.75;2.83;;;;;;;-2.63;88.14;96278.16;4990238;28;20256;-74
2024/01/31 03:21:42;;;;;;;9.27;3.40;;;;;;;-2.57;88.41;96285.28;4992530;28;20213;-74
2024/01/31 03:24:10;;;;;;;4.95;2.80;;;;;;;-2.53;88.12;96281.22;4992310;28;20217;-74
2024/01/31 03:26:35;;;;;;;4.13;2.65;;;;;;;-2.41;88.13;96276.91;4995019;28;20209;-75
2024/01/31 03:29:02;;;;;;;4.15;2.25;;;;;;;-2.67;88.14;96276.94;4992399;28;20654;-74
2024/01/31 03:31:30;;;;;;;2.38;2.00;;;;;;;-2.53;88.31;96278.56;4991701;28;20287;-75
2024/01/31 03:33:57;;;;;;;5.03;2.20;;;;;;;-2.59;87.54;96274.06;4992197;28;20213;-75
2024/01/31 03:36:24;;;;;;;6.00;2.67;;;;;;;-2.68;88.24;96275.31;4992493;28;20217;-73
2024/01/31 03:38:52;;;;;;;0.20;0.20;;;;;;;-2.67;87.15;96272.44;4991861;28;20239;-74
2024/01/31 03:41:19;;;;;;;0.30;0.30;;;;;;;-2.80;87.01;96272.44;4991659;28;20214;-74
2024/01/31 03:43:46;;;;;;;0.20;0.20;;;;;;;-2.71;87.20;96286.31;4992091;28;20853;-75
2024/01/31 03:46:13;;;;;;;0.20;0.20;;;;;;;-2.95;87.99;96280.59;4992189;28;20598;-74
2024/01/31 03:48:41;;;;;;;0.30;0.30;;;;;;;-3.09;88.91;96288.72;4991855;28;20205;-76
2024/01/31 03:51:18;;;;;;;1.02;0.73;;;;;;;-2.83;88.60;96277.34;4991251;28;20233;-75
2024/01/31 03:53:45;;;;;;;0.20;0.20;;;;;;;-2.67;88.05;96292.84;4991236;28;20205;-73
2024/01/31 03:56:12;;;;;;;9.50;2.65;;;;;;;-2.60;87.19;96289.19;4991992;28;20210;-75
2024/01/31 03:58:39;;;;;;;4.45;2.22;;;;;;;-2.64;87.68;96287.16;4991912;28;20643;-75
2024/01/31 04:01:06;;;;;;;7.32;2.83;;;;;;;-2.56;87.42;96292.22;4990041;28;20578;-74
2024/01/31 04:03:33;;;;;;;5.72;2.05;;;;;;;-2.60;86.81;96283.88;4989193;28;20205;-76
2024/01/31 04:06:01;;;;;;;5.82;2.83;;;;;;;-2.64;86.94;96297.75;4992588;28;20304;-74
2024/01/31 04:08:28;;;;;;;4.20;2.72;;;;;;;-2.69;87.64;96294.88;4992692;28;20209;-74
2024/01/31 04:10:55;;;;;;;6.00;2.55;;;;;;;-2.59;87.42;96289.97;4991358;28;20275;-74
2024/01/31 04:13:22;;;;;;;8.57;4.20;;;;;;;-2.64;87.07;96287.97;4991821;28;20198;-75
2024/01/31 04:15:49;;;;;;;0.35;0.35;;;;;;;-2.66;86.98;96303.25;4991573;28;20209;-73
2024/01/31 04:18:15;;;;;;;5.47;4.15;;;;;;;-2.61;86.68;96300.00;4991508;28;20210;-74
2024/01/31 04:20:42;;;;;;;4.55;3.17;;;;;;;2.28;100.00;96273.06;4990961;28;20217;-71
2024/01/31 04:23:10;;;;;;;0.20;0.20;;;;;;;1.86;100.00;96275.88;4991802;28;20601;-74
2024/01/31 04:25:37;;;;;;;1.48;0.85;;;;;;;0.44;100.00;96288.19;4988314;28;20224;-75
2024/01/31 04:28:05;;;;;;;0.20;0.20;;;;;;;-0.49;100.00;96288.31;4991420;28;20619;-76
2024/01/31 04:30:31;;;;;;;0.68;0.68;;;;;;;-1.29;100.00;96297.84;4990410;28;20559;-76
2024/01/31 04:33:01;;;;;;;1.10;1.00;;;;;;;-1.78;100.00;96298.47;4988946;28;20241;-74
2024/01/31 04:35:27;;;;;;;1.02;0.95;;;;;;;-2.13;100.00;96305.88;4991085;28;20264;-74
2024/01/31 04:37:54;;;;;;;0.35;0.35;;;;;;;-2.23;100.00;96302.84;4991729;28;20301;-73
2024/01/31 04:40:22;;;;;;;0.20;0.20;;;;;;;-2.34;100.00;96301.63;4989698;28;20216;-73
2024/01/31 04:42:49;;;;;;;0.20;0.20;;;;;;;-2.30;100.00;96300.16;4990842;28;20645;-75
2024/01/31 04:45:16;;;;;;;0.20;0.20;;;;;;;-2.55;100.00;96297.34;4991221;28;20788;-74
2024/01/31 04:47:43;;;;;;;0.35;0.35;;;;;;;-2.97;97.32;96303.84;4991572;28;20206;-74
2024/01/31 04:50:11;;;;;;;0.20;0.20;;;;;;;-3.00;98.36;96304.22;4990847;28;20210;-74
2024/01/31 04:52:38;;;;;;;1.35;1.30;;;;;;;-3.10;97.64;96303.81;4990183;28;20293;-75
2024/01/31 04:55:05;;;;;;;0.73;0.73;;;;;;;-3.09;97.85;96302.78;4995760;28;20362;-76
2024/01/31 04:57:33;;;;;;;1.35;1.05;;;;;;;-2.91;97.86;96294.28;4995367;28;20205;-74
2024/01/31 05:00:02;;;;;;;0.30;0.30;;;;;;;-2.97;95.30;96282.63;4995914;28;20205;-75
2024/01/31 05:02:29;;;;;;;0.77;0.77;;;;;;;-2.90;94.88;96287.94;4988434;28;20225;-75
2024/01/31 05:04:55;;;;;;;0.30;0.30;;;;;;;-2.98;93.78;96288.13;4991596;28;20217;-75
2024/01/31 05:07:22;;;;;;;0.35;0.35;;;;;;;-3.07;92.71;96282.22;4994783;28;20260;-73
2024/01/31 05:09:49;;;;;;;0.50;0.50;;;;;;;-3.33;93.54;96288.28;4995379;28;20288;-74
2024/01/31 05:12:16;;;;;;;10.68;4.68;;;;;;;-3.13;93.44;96282.19;4987261;28;20655;-74
2024/01/31 05:14:44;;;;;;;9.70;3.53;;;;;;;-3.24;93.68;96286.25;4999407;28;20304;-72
2024/01/31 05:17:15;;;;;;;23.38;4.60;;;;;;;-3.31;92.95;96285.44;4996186;28;20260;-74
2024/01/31 05:19:42;;;;;;;5.45;2.95;;;;;;;-3.15;93.23;96290.38;5015117;28;20196;-73
2024/01/31 05:22:09;;;;;;;3.83;2.65;;;;;;;-3.68;93.12;96300.78;5014232;28;20251;-72
2024/01/31 05:24:35;;;;;;;6.88;3.25;;;;;;;-4.09;94.56;96307.88;5014729;28;20217;-73
2024/01/31 05:27:03;;;;;;;4.88;3.08;;;;;;;-4.28;95.99;96304.13;5014393;28;20228;-72
2024/01/31 05:29:30;;;;;;;6.45;3.28;;;;;;;-4.41;97.15;96307.50;4997650;28;20253;-73
2024/01/31 05:31:59;;;;;;;7.30;3.53;;;;;;;-4.52;97.09;96307.22;4995242;28;20683;-73
2024/01/31 05:34:26;;;;;;;7.47;3.90;;;;;;;-4.48;97.33;96311.91;4994960;28;20781;-73
2024/01/31 05:36:52;;;;;;;5.90;2.83;;;;;;;-4.44;97.00;96315.81;4995266;28;20212;-74
2024/01/31 05:39:19;;;;;;;11.05;3.25;;;;;;;-3.83;96.51;96317.84;5007280;28;20204;-72
2024/01/31 05:41:46;;;;;;;6.43;3.95;;;;;;;-3.74;94.58;96316.66;5014394;28;20622;-73
2024/01/31 05:44:13;;;;;;;9.52;4.55;;;;;;;-3.60;93.85;96308.56;5013909;28;20245;-74
2024/01/31 05:46:40;;;;;;;7.82;3.50;;;;;;;-3.29;93.96;96320.50;5013922;28;20205;-75
2024/01/31 05:49:08;;;;;;;8.13;3.53;;;;;;;-3.23;92.95;96323.16;5011899;28;20260;-73
2024/01/31 05:51:35;;;;;;;4.13;3.10;;;;;;;-3.28;92.18;96332.72;4994619;28;20633;-74
2024/01/31 05:54:01;;;;;;;7.88;2.92;;;;;;;-3.66;92.17;96324.41;5000588;28;20205;-74
2024/01/31 05:56:28;;;;;;;9.35;3.40;;;;;;;-3.90;93.69;96332.84;5014259;28;20268;-73
2024/01/31 05:58:55;;;;;;;5.05;3.28;;;;;;;-3.90;94.74;96336.31;5014352;28;20256;-74
2024/01/31 06:01:22;;;;;;;9.98;3.83;;;;;;;-3.45;94.82;96332.25;5014343;28;20275;-74
2024/01/31 06:03:48;;;;;;;5.53;3.00;;;;;;;-3.06;95.33;96342.16;5012989;28;20202;-73
2024/01/31 06:06:17;;;;;;;10.80;4.47;;;;;;;-2.49;94.28;96338.16;5014158;28;20814;-69
2024/01/31 06:08:43;;;;;;;12.30;4.50;;;;;;;1.35;100.00;96312.03;5012492;28;20645;-74
2024/01/31 06:11:10;;;;;;;5.82;3.38;;;;;;;1.87;100.00;96312.25;4993335;28;20229;-70
2024/01/31 06:13:38;;;;;;;6.43;2.95;;;;;;;0.09;96.36;96329.78;4994624;28;20272;-73
2024/01/31 06:16:05;;;;;;;0.30;0.30;;;;;;;-0.77;91.87;96323.31;5011978;28;20205;-74
2024/01/31 06:18:34;;;;;;;0.28;0.28;;;;;;;-0.82;89.36;96325.78;5013858;28;20201;-73
2024/01/31 06:21:02;;;;;;;0.40;0.40;;;;;;;-0.34;89.74;96317.25;5010269;28;20255;-73
2024/01/31 06:23:30;;;;;;;0.40;0.40;;;;;;;-0.66;85.26;96320.97;5013692;28;20209;-75
2024/01/31 06:26:00;;;;;;;0.60;0.60;;;;;;;-0.94;82.06;96324.84;5013233;28;20368;-74
2024/01/31 06:28:26;;;;;;;0.20;0.20;;;;;;;-0.77;82.89;96312.66;5013631;28;20212;-73
2024/01/31 06:30:59;;;;;;;12.55;5.82;;;;;;;-0.40;80.93;96313.59;5013281;28;20232;-75
2024/01/31 06:33:31;;;;;;;9.23;6.13;;;;;;;0.82;79.23;96313.81;5014022;28;20613;-74
2024/01/31 06:35:57;;;;;;;11.70;6.15;;;;;;;1.78;75.89;96309.06;5012452;28;20243;-73
2024/01/31 06:38:25;;;;;;;7.43;5.30;;;;;;;2.29;72.92;96306.78;5013982;28;20216;-74
2024/01/31 06:40:58;;;;;;;5.25;4.53;;;;;;;2.47;72.18;96314.66;5013231;28;20208;-75
2024/01/31 06:43:25;;;;;;;13.00;3.95;;;;;;;2.48;71.00;96314.41;5013357;28;20288;-76
2024/01/31 06:45:53;;;;;;;0.30;0.30;;;;;;;2.57;69.84;96314.06;5004242;28;20201;-75
2024/01/31 06:48:20;;;;;;;0.22;0.22;;;;;;;1.89;69.42;96312.00;5013428;28;20231;-75
2024/01/31 06:50:47;;;;;;;0.65;0.65;;;;;;;1.33;71.52;96323.97;5003485;28;20213;-76
2024/01/31 06:53:14;;;;;;;0.52;0.52;;;;;;;1.32;71.55;96317.81;4984744;28;20272;-76
2024/01/31 06:55:41;;;;;;;0.63;0.63;;;;;;;1.62;71.72;96315.13;4990629;28;20217;-75
2024/01/31 06:58:11;;;;;;;0.80;0.80;;;;;;;1.34;71.68;96315.75;4990637;28;20210;-76
2024/01/31 07:00:38;;;;;;;0.52;0.35;;;;;;;1.14;70.78;96320.53;4993125;28;20209;-76
2024/01/31 07:03:08;;;;;;;0.40;0.40;;;;;;;0.97;73.64;96324.88;4991859;28;20296;-75
2024/01/31 07:05:35;;;;;;;2.40;2.15;;;;;;;-0.13;76.24;96322.19;4978425;28;20239;-75
2024/01/31 07:08:06;;;;;;;0.25;0.25;;;;;;;-0.42;79.87;96314.88;4993232;28;20237;-75
2024/01/31 07:10:35;;;;;;;0.32;0.32;;;;;;;-0.65;81.14;96309.31;4993039;28;20217;-76
2024/01/31 07:13:06;;;;;;;0.52;0.52;;;;;;;-1.24;80.81;96326.44;4993200;28;20225;-77
2024/01/31 07:15:36;;;;;;;0.20;0.20;;;;;;;-1.25;82.87;96319.50;4993404;28;20201;-76
2024/01/31 07:18:03;;;;;;;0.20;0.20;;;;;;;-0.99;83.51;96319.34;4992661;28;20236;-75
2024/01/31 07:20:30;;;;;;;0.50;0.50;;;;;;;-1.33;83.20;96319.72;4993122;28;20210;-75
2024/01/31 07:22:58;;;;;;;0.47;0.47;;;;;;;-1.35;83.79;96324.44;4992771;28;20225;-75
2024/01/31 07:25:29;;;;;;;0.47;0.47;;;;;;;-1.48;83.89;96323.47;4992914;28;20217;-75
2024/01/31 07:27:57;;;;;;;4.90;2.58;;;;;;;-2.03;85.37;96318.72;5008402;28;20208;-76
2024/01/31 07:30:28;;;;;;;4.03;1.95;;;;;;;-2.20;86.74;96319.16;5001450;28;20305;-75
2024/01/31 07:32:57;;;;;;;0.32;0.32;;;;;;;-2.20;86.54;96321.00;5007242;28;20264;-76
2024/01/31 07:35:24;;;;;;;1.20;1.20;;;;;;;-2.42;86.75;96323.03;5012781;28;20210;-74
2024/01/31 07:37:51;;;;;;;1.23;0.77;;;;;;;-2.23;86.26;96322.22;5011711;28;20216;-75
2024/01/31 07:40:22;;;;;;;0.35;0.35;;;;;;;-2.05;86.96;96320.78;5012489;28;20209;-75
2024/01/31 07:42:50;;;;;;;1.33;1.23;;;;;;;-1.55;84.94;96325.34;5012139;28;20212;-74
2024/01/31 07:45:17;;;;;;;0.40;0.40;;;;;;;-1.38;83.80;96319.56;4999824;28;20581;-75
2024/01/31 07:47:47;;;;;;;0.35;0.35;;;;;;;-1.27;82.48;96318.91;4993457;28;20209;-75
2024/01/31 07:50:15;;;;;;;5.80;3.42;;;;;;;-1.05;82.12;96303.44;4992768;28;20210;-75
2024/01/31 07:52:45;;;;;;;8.38;4.13;;;;;;;-0.55;81.77;96317.66;5000016;28;20299;-75
2024/01/31 07:55:13;;;;;;;5.03;2.97;;;;;;;-0.73;81.25;96308.56;5012162;28;20215;-74
2024/01/31 07:57:42;;;;;;;6.70;3.40;;;;;;;-1.03;82.36;96306.69;5010956;28;20247;-75
2024/01/31 08:00:18;;;;;;;6.72;3.47;;;;;;;-0.67;81.43;96300.72;5012268;28;20208;-75
2024/01/31 08:02:48;;;;;;;3.53;2.97;;;;;;;-0.51;80.02;96306.34;5011711;28;20212;-77
2024/01/31 08:05:24;;;;;;;0.82;0.82;;;;;;;-0.57;81.58;96311.72;5011726;28;20336;-75
2024/01/31 08:07:53;;;;;;;0.20;0.20;;;;;;;-0.49;81.02;96308.78;5010721;28;20240;-77
2024/01/31 08:10:21;;;;;;;0.20;0.20;;;;;;;-0.27;80.79;96299.38;5011989;28;20208;-76
2024/01/31 08:12:52;;;;;;;1.85;1.75;;;;;;;-0.02;79.15;96294.84;5008572;28;20237;-77
2024/01/31 08:15:42;;;;;;;0.90;0.90;;;;;;;0.08;78.23;96294.34;4992367;28;20760;-77
2024/01/31 08:18:16;;;;;;;0.15;0.15;;;;;;;0.32;76.48;96289.97;4957921;28;20222;-77
2024/01/31 08:20:49;;;;;;;0.47;0.47;;;;;;;0.20;76.52;96291.75;4974339;28;20700;-77
2024/01/31 08:23:16;;;;;;;0.20;0.20;;;;;;;0.47;76.11;96292.28;4969463;28;20660;-76
2024/01/31 08:25:43;;;;;;;0.20;0.20;;;;;;;0.50;75.92;96281.16;4970432;28;20206;-77
2024/01/31 08:28:10;;;;;;;0.52;0.52;;;;;;;0.26;75.06;96288.22;4970584;28;20313;-76
2024/01/31 08:30:39;;;;;;;0.43;0.43;;;;;;;0.16;75.82;96293.22;4989398;28;20290;-76
2024/01/31 08:33:10;;;;;;;0.20;0.20;;;;;;;0.22;76.13;96289.69;4989811;28;20701;-76
2024/01/31 08:35:39;;;;;;;2.13;1.67;;;;;;;0.50;75.88;96279.31;4990799;28;20208;-76
2024/01/31 08:38:09;;;;;;;0.32;0.32;;;;;;;0.34;75.41;96277.25;4972356;28;20218;-76
2024/01/31 08:40:39;;;;;;;0.20;0.20;;;;;;;0.71;75.91;96278.03;5009613;28;20266;-76
2024/01/31 08:43:06;;;;;;;0.57;0.57;;;;;;;0.70;76.97;96277.22;4993627;28;20205;-75
2024/01/31 08:45:35;;;;;;;1.40;1.40;;;;;;;0.35;75.11;96285.03;4993804;28;20206;-75
2024/01/31 08:48:05;;;;;;;0.65;0.65;;;;;;;0.48;77.08;96268.06;4991398;28;20216;-76
2024/01/31 08:50:33;;;;;;;0.60;0.30;;;;;;;1.00;76.42;96265.72;4993054;28;20216;-78
2024/01/31 08:53:02;;;;;;;1.00;0.60;;;;;;;1.09;76.36;96267.06;4991391;28;20229;-77
2024/01/31 08:55:30;;;;;;;0.77;0.77;;;;;;;0.78;74.21;96261.94;5005042;28;20216;-77
2024/01/31 08:57:59;;;;;;;2.22;2.13;;;;;;;0.73;74.20;96270.63;5010324;28;20209;-76
2024/01/31 09:00:29;;;;;;;0.30;0.30;;;;;;;0.71;75.66;96257.50;5010661;28;20300;-76
2024/01/31 09:02:58;;;;;;;0.65;0.65;;;;;;;1.32;73.79;96248.41;5011309;28;20642;-75
2024/01/31 09:05:27;;;;;;;0.32;0.32;;;;;;;1.17;73.04;96242.69;5011265;28;20221;-76
2024/01/31 09:10:39;;;;;;;1.75;1.65;;;;;;;1.15;74.01;96236.78;5007012;28;20658;-75
2024/01/31 09:13:06;;;;;;;0.73;0.73;;;;;;;1.59;74.69;96237.31;4991590;28;20225;-76
2024/01/31 09:15:36;;;;;;;0.10;0.10;;;;;;;1.35;72.13;96237.28;4991544;28;20209;-76
2024/01/31 09:18:04;;;;;;;0.30;0.30;;;;;;;1.43;73.19;96230.78;4991347;28;20210;-76
2024/01/31 09:20:31;;;;;;;0.68;0.68;;;;;;;1.60;72.35;96220.25;4998165;28;20650;-77
2024/01/31 09:22:59;;;;;;;0.70;0.65;;;;;;;1.62;71.41;96220.81;5010943;28;20259;-77
2024/01/31 09:25:26;;;;;;;0.40;0.40;;;;;;;1.85;70.82;96223.50;5010718;28;20308;-76
2024/01/31 09:27:56;;;;;;;2.63;1.92;;;;;;;2.13;71.62;96215.56;4995342;28;20209;-77
2024/01/31 09:30:25;;;;;;;1.00;0.95;;;;;;;2.20;72.25;96217.28;4994468;28;20613;-76
2024/01/31 09:32:54;;;;;;;1.65;1.25;;;;;;;2.14;72.37;96211.84;5010815;28;20228;-77
2024/01/31 09:35:23;;;;;;;0.73;0.35;;;;;;;2.32;70.94;96202.03;5010726;28;20220;-79
2024/01/31 09:37:52;;;;;;;0.28;0.28;;;;;;;2.60;68.17;96194.00;5011280;28;20205;-78
2024/01/31 09:40:22;;;;;;;5.78;2.80;;;;;;;3.02;67.24;96191.84;5013694;28;20260;-76
2024/01/31 09:42:54;;;;;;;0.55;0.55;;;;;;;3.26;66.05;96184.50;5014839;28;20567;-75
2024/01/31 09:45:27;;;;;;;6.90;1.38;;;;;;;2.62;65.76;96183.06;5001796;28;20577;-76
2024/01/31 09:47:57;;;;;;;2.00;1.55;;;;;;;2.84;66.93;96176.81;4975355;28;20205;-75
2024/01/31 09:50:24;;;;;;;0.82;0.82;;;;;;;3.04;66.19;96172.88;4987915;28;20770;-77
2024/01/31 09:52:55;;;;;;;0.32;0.32;;;;;;;2.71;67.01;96169.09;5006279;28;20621;-76
2024/01/31 09:55:23;;;;;;;1.73;1.42;;;;;;;2.53;67.68;96165.78;4993418;28;20205;-76
2024/01/31 09:57:50;;;;;;;0.52;0.52;;;;;;;2.73;66.44;96156.25;5010983;28;20198;-76
2024/01/31 10:00:18;;;;;;;1.27;1.15;;;;;;;2.58;66.61;96166.72;5013943;28;20213;-73
2024/01/31 10:02:54;;;;;;;1.42;0.90;;;;;;;3.02;66.45;96157.03;5013666;28;20232;-75
2024/01/31 10:05:28;;;;;;;1.33;1.08;;;;;;;3.30;65.00;96148.13;5014424;28;20225;-76
2024/01/31 10:08:08;;;;;;;0.60;0.60;;;;;;;3.46;65.46;96136.59;5013727;28;20652;-76
2024/01/31 10:10:35;;;;;;;1.05;1.05;;;;;;;3.31;64.78;96147.06;5013595;28;20646;-78
2024/01/31 10:13:24;;;;;;;1.08;0.88;;;;;;;3.42;61.85;96140.81;5013759;28;20283;-77
2024/01/31 10:15:52;;;;;;;0.30;0.30;;;;;;;3.78;62.11;96122.56;5013853;28;20208;-76
2024/01/31 10:18:27;;;;;;;1.83;1.67;;;;;;;3.62;63.16;96128.78;5013819;28;20201;-78
2024/01/31 10:20:54;;;;;;;1.30;1.20;;;;;;;4.09;63.49;96129.16;5013625;28;20739;-78
2024/01/31 10:23:23;;;;;;;0.70;0.70;;;;;;;4.31;60.37;96115.72;4995629;28;20210;-77
2024/01/31 10:25:59;;;;;;;0.73;0.73;;;;;;;4.06;61.47;96113.56;4994238;28;20720;-78
2024/01/31 10:28:31;;;;;;;3.58;1.73;;;;;;;3.95;60.66;96101.09;5007408;28;20204;-77
2024/01/31 10:31:00;;;;;;;1.65;1.58;;;;;;;4.31;60.22;96107.66;5001175;28;20578;-78
2024/01/31 10:33:36;;;;;;;0.50;0.50;;;;;;;4.59;59.93;96102.88;5006073;28;20704;-78
2024/01/31 10:36:04;;;;;;;1.40;1.33;;;;;;;4.82;57.97;96096.38;5013911;28;20211;-76
2024/01/31 10:38:34;;;;;;;0.80;0.60;;;;;;;4.37;56.88;96087.91;5013911;28;20211;-77
2024/01/31 10:41:06;;;;;;;0.77;0.73;;;;;;;4.33;57.52;96076.84;5013770;28;20573;-77
2024/01/31 10:43:36;;;;;;;1.00;1.00;;;;;;;4.84;56.76;96078.13;5013465;28;20235;-77
2024/01/31 10:46:10;;;;;;;0.55;0.28;;;;;;;4.71;54.12;96073.19;4995069;28;20194;-77
2024/01/31 10:48:39;;;;;;;0.38;0.38;;;;;;;4.93;53.09;96065.84;4993519;28;20213;-77
2024/01/31 10:51:10;;;;;;;1.70;1.60;;;;;;;4.65;53.54;96063.47;4993694;28;20727;-79
2024/01/31 10:53:39;;;;;;;1.00;0.90;;;;;;;5.05;55.79;96062.22;4993293;28;20276;-78
2024/01/31 10:56:13;;;;;;;0.77;0.77;;;;;;;5.17;55.89;96060.16;4993806;28;20612;-77
2024/01/31 10:58:47;;;;;;;2.80;2.05;;;;;;;5.15;54.63;96051.53;4999957;28;20565;-77
2024/01/31 11:01:17;;;;;;;0.90;0.90;;;;;;;4.98;54.46;96047.09;5013528;28;20224;-77
2024/01/31 11:03:57;;;;;;;2.08;1.25;;;;;;;5.18;54.39;96051.03;5013008;28;20272;-78
2024/01/31 11:06:43;;;;;;;5.28;1.33;;;;;;;5.61;53.36;96047.22;5013622;28;20609;-78
2024/01/31 11:09:21;;;;;;;2.22;1.20;;;;;;;5.83;51.84;96039.00;5013160;28;20205;-78
2024/01/31 11:11:52;;;;;;;9.85;4.63;;;;;;;5.80;51.52;96034.97;5013372;28;20205;-77
2024/01/31 11:14:27;;;;;;;0.77;0.77;;;;;;;6.31;51.07;96016.31;5012335;28;20243;-76
2024/01/31 11:17:05;;;;;;;1.67;1.58;;;;;;;6.37;48.80;96024.16;5013141;28;20216;-77
2024/01/31 11:19:38;;;;;;;1.48;1.38;;;;;;;6.67;50.61;96014.50;5004726;28;20206;-78
2024/01/31 11:22:06;;;;;;;1.30;1.20;;;;;;;6.93;47.24;96012.59;4993224;28;20206;-77
2024/01/31 11:24:47;;;;;;;7.32;1.98;;;;;;;6.87;47.79;96003.72;4993096;28;20252;-78
2024/01/31 11:27:22;;;;;;;1.75;0.65;;;;;;;6.54;46.42;95999.69;4993314;28;20212;-77
2024/01/31 11:29:56;;;;;;;2.47;2.28;;;;;;;6.06;45.35;96006.31;5000859;28;20250;-76
2024/01/31 11:32:23;;;;;;;1.63;1.15;;;;;;;6.18;45.05;96004.19;5012652;28;20241;-76
2024/01/31 11:35:00;;;;;;;3.17;1.85;;;;;;;6.34;45.08;95997.75;5012067;28;20209;-77
2024/01/31 11:37:27;;;;;;;1.30;0.98;;;;;;;6.64;44.11;95988.09;5011404;28;20558;-76
2024/01/31 11:39:54;;;;;;;1.35;1.17;;;;;;;6.61;44.07;95991.31;5012635;28;20217;-77
2024/01/31 11:42:20;;;;;;;0.98;0.98;;;;;;;6.93;43.91;95981.09;4999325;28;20233;-77
2024/01/31 11:44:47;;;;;;;0.80;0.80;;;;;;;6.90;42.11;95976.25;4991536;28;20259;-78